Flight Track Log - Related Links

Times and Time Zones

All times are in EDT time to prevent confusion due to time zone crossing. See the EVA2 flight status page for this flight to view local times or setup timezone preferences in your user account.


Time Position Orientation Groundspeed Altitude Reporting Facility
EDT Latitude Longitude Course Direction KTS MPH feet Rate Location/Type
Mon 10:59:00 AM 25.3246 121.9400 70° East  Level FlightAware Approximate
Mon 11:00:00 AM 25.3733 122.0863 70° East  Level FlightAware Approximate
Mon 11:01:00 AM 25.4244 122.2309 74° East  Level FlightAware Approximate
Mon 11:02:00 AM 25.4620 122.3812 74° East  Level FlightAware Approximate
Mon 11:03:00 AM 25.5204 122.5226 68° East  Level FlightAware Approximate
Mon 11:04:00 AM 25.5720 122.6678 72° East  Level FlightAware Approximate
Mon 11:05:00 AM 25.6165 122.8160 72° East  Level FlightAware Approximate
Mon 11:06:00 AM 25.6659 122.9592 65° Northeast  Level FlightAware Approximate
Mon 11:07:00 AM 25.7179 123.1030 66° East  Level FlightAware Approximate
Mon 11:08:00 AM 25.7648 123.2498 76° East  Level FlightAware Approximate
Mon 11:09:00 AM 25.8062 123.3990 69° East  Level FlightAware Approximate
Mon 11:10:00 AM 25.8568 123.5450 69° East  Level FlightAware Approximate
Mon 11:11:00 AM 25.9073 123.6911 69° East  Level FlightAware Approximate
Mon 11:12:00 AM 25.9601 123.8362 67° East  Level FlightAware Approximate
Mon 11:13:00 AM 26.0155 123.9803 67° East  Level FlightAware Approximate
Mon 11:14:00 AM 26.0608 124.1287 71° East  Level FlightAware Approximate
Mon 11:15:00 AM 26.1057 124.2773 71° East  Level FlightAware Approximate
Mon 11:16:00 AM 26.1505 124.4260 71° East  Level FlightAware Approximate
Mon 11:17:00 AM 26.1951 124.5749 71° East  Level FlightAware Approximate
Mon 11:18:00 AM 26.2396 124.7238 72° East  Level FlightAware Approximate
Mon 11:19:00 AM 26.2839 124.8729 72° East  Level FlightAware Approximate
Mon 11:20:00 AM 26.3285 125.0219 71° East  Level FlightAware Approximate
Mon 11:21:00 AM 26.3741 125.1706 71° East  Level FlightAware Approximate
Mon 11:22:00 AM 26.4196 125.3194 71° East  Level FlightAware Approximate
Mon 11:23:00 AM 26.4649 125.4683 71° East  Level FlightAware Approximate
Mon 11:24:00 AM 26.5100 125.6173 71° East  Level FlightAware Approximate
Mon 11:25:00 AM 26.5550 125.7665 71° East  Level FlightAware Approximate
Mon 11:26:00 AM 26.5999 125.9158 71° East  Level FlightAware Approximate
Mon 11:27:00 AM 26.6446 126.0652 71° East  Level FlightAware Approximate
Mon 11:28:00 AM 26.6891 126.2147 72° East  Level FlightAware Approximate
Mon 11:29:00 AM 26.7334 126.3643 72° East  Level FlightAware Approximate
Mon 11:30:00 AM 26.7777 126.5140 72° East  Level FlightAware Approximate
Mon 11:31:00 AM 26.8329 126.6591 66° East  Level FlightAware Approximate
Mon 11:32:00 AM 26.8897 126.8035 66° East  Level FlightAware Approximate
Mon 11:33:00 AM 26.9464 126.9481 66° East  Level FlightAware Approximate
Mon 11:34:00 AM 27.0035 127.0926 66° East  Level FlightAware Approximate
Mon 11:35:00 AM 27.0607 127.2371 66° East  Level FlightAware Approximate
Mon 11:36:00 AM 27.1178 127.3817 66° East  Level FlightAware Approximate
Mon 11:37:00 AM 27.1747 127.5264 66° East  Level FlightAware Approximate
Mon 11:38:00 AM 27.2315 127.6713 66° East  Level FlightAware Approximate
Mon 11:39:00 AM 27.2881 127.8164 66° East  Level FlightAware Approximate
Mon 11:40:00 AM 27.3446 127.9616 66° East  Level FlightAware Approximate
Mon 11:41:00 AM 27.4009 128.1069 66° East  Level FlightAware Approximate
Mon 11:42:00 AM 27.4571 128.2524 66° East  Level FlightAware Approximate
Mon 11:43:00 AM 27.5131 128.3981 67° East  Level FlightAware Approximate
Mon 11:44:00 AM 27.5690 128.5439 67° East  Level FlightAware Approximate
Mon 11:45:00 AM 27.6247 128.6898 67° East  Level FlightAware Approximate
Mon 11:46:00 AM 27.6807 128.8356 66° East  Level FlightAware Approximate
Mon 11:47:00 AM 27.7380 128.9810 66° East  Level FlightAware Approximate
Mon 11:48:00 AM 27.7951 129.1264 66° East  Level FlightAware Approximate
Mon 11:49:00 AM 27.8534 129.2712 49° Northeast  Level FlightAware Approximate
Mon 11:50:00 AM 27.9450 129.3922 49° Northeast  Level FlightAware Approximate
Mon 11:51:00 AM 28.0365 129.5135 49° Northeast  Level FlightAware Approximate
Mon 11:52:00 AM 28.1278 129.6349 50° Northeast  Level FlightAware Approximate
Mon 11:53:00 AM 28.2191 129.7566 50° Northeast  Level FlightAware Approximate
Mon 11:54:00 AM 28.3102 129.8785 50° Northeast  Level FlightAware Approximate
Mon 11:55:00 AM 28.4013 130.0006 50° Northeast  Level FlightAware Approximate
Mon 11:56:00 AM 28.4922 130.1229 50° Northeast  Level FlightAware Approximate
Mon 11:57:00 AM 28.5733 130.2539 55° Northeast  Level FlightAware Approximate
Mon 11:58:00 AM 28.6533 130.3859 55° Northeast  Level FlightAware Approximate
Mon 11:59:00 AM 28.7332 130.5181 55° Northeast  Level FlightAware Approximate
Mon 12:00:00 PM 28.8129 130.6506 55° Northeast  Level FlightAware Approximate
Mon 12:01:00 PM 28.8925 130.7832 56° Northeast  Level FlightAware Approximate
Mon 12:02:00 PM 28.9720 130.9160 56° Northeast  Level FlightAware Approximate
Mon 12:03:00 PM 29.0514 131.0491 56° Northeast  Level FlightAware Approximate
Mon 12:04:00 PM 29.1306 131.1823 56° Northeast  Level FlightAware Approximate
Mon 12:05:00 PM 29.2097 131.3158 56° Northeast  Level FlightAware Approximate
Mon 12:06:00 PM 29.2886 131.4494 56° Northeast  Level FlightAware Approximate
Mon 12:07:00 PM 29.3675 131.5833 56° Northeast  Level FlightAware Approximate
Mon 12:08:00 PM 29.4462 131.7173 56° Northeast  Level FlightAware Approximate
Mon 12:09:00 PM 29.5247 131.8516 56° Northeast  Level FlightAware Approximate
Mon 12:10:00 PM 29.6031 131.9861 56° Northeast  Level FlightAware Approximate
Mon 12:11:00 PM 29.6858 132.1171 51° Northeast  Level FlightAware Approximate
Mon 12:12:00 PM 29.7749 132.2427 51° Northeast  Level FlightAware Approximate
Mon 12:13:00 PM 29.8639 132.3685 51° Northeast  Level FlightAware Approximate
Mon 12:14:00 PM 29.9527 132.4946 51° Northeast  Level FlightAware Approximate
Mon 12:15:00 PM 30.0414 132.6208 51° Northeast  Level FlightAware Approximate
Mon 12:16:00 PM 30.1300 132.7474 51° Northeast  Level FlightAware Approximate
Mon 12:17:00 PM 30.2185 132.8741 51° Northeast  Level FlightAware Approximate
Mon 12:18:00 PM 30.3069 133.0011 51° Northeast  Level FlightAware Approximate
Mon 12:19:00 PM 30.3951 133.1283 51° Northeast  Level FlightAware Approximate
Mon 12:20:00 PM 30.4832 133.2557 51° Northeast  Level FlightAware Approximate
Mon 12:21:00 PM 30.5712 133.3833 51° Northeast  Level FlightAware Approximate
Mon 12:22:00 PM 30.6590 133.5112 51° Northeast  Level FlightAware Approximate
Mon 12:23:00 PM 30.7468 133.6393 51° Northeast  Level FlightAware Approximate
Mon 12:24:00 PM 30.8344 133.7677 51° Northeast  Level FlightAware Approximate
Mon 12:25:00 PM 30.9219 133.8963 52° Northeast  Level FlightAware Approximate
Mon 12:26:00 PM 31.0092 134.0251 52° Northeast  Level FlightAware Approximate
Mon 12:27:00 PM 31.0965 134.1542 52° Northeast  Level FlightAware Approximate
Mon 12:28:00 PM 31.1836 134.2835 52° Northeast  Level FlightAware Approximate
Mon 12:29:00 PM 31.2705 134.4130 52° Northeast  Level FlightAware Approximate
Mon 12:30:00 PM 31.3574 134.5428 52° Northeast  Level FlightAware Approximate
Mon 12:31:00 PM 31.4441 134.6728 52° Northeast  Level FlightAware Approximate
Mon 12:32:00 PM 31.5306 134.8031 52° Northeast  Level FlightAware Approximate
Mon 12:33:00 PM 31.6171 134.9335 52° Northeast  Level FlightAware Approximate
Mon 12:34:00 PM 31.7047 135.0631 51° Northeast  Level FlightAware Approximate
Mon 12:35:00 PM 31.7930 135.1921 51° Northeast  Level FlightAware Approximate
Mon 12:36:00 PM 31.8807 135.3218 53° Northeast  Level FlightAware Approximate
Mon 12:37:00 PM 31.9657 135.4541 53° Northeast  Level FlightAware Approximate
Mon 12:38:00 PM 32.0506 135.5866 53° Northeast  Level FlightAware Approximate
Mon 12:39:00 PM 32.1353 135.7194 53° Northeast  Level FlightAware Approximate
Mon 12:40:00 PM 32.2199 135.8524 53° Northeast  Level FlightAware Approximate
Mon 12:41:00 PM 32.3043 135.9857 53° Northeast  Level FlightAware Approximate
Mon 12:42:00 PM 32.3887 136.1192 53° Northeast  Level FlightAware Approximate
Mon 12:43:00 PM 32.4705 136.2549 57° Northeast  Level FlightAware Approximate
Mon 12:44:00 PM 32.5461 136.3958 57° Northeast  Level FlightAware Approximate
Mon 12:45:00 PM 32.6216 136.5369 58° Northeast  Level FlightAware Approximate
Mon 12:46:00 PM 32.6969 136.6783 58° Northeast  Level FlightAware Approximate
Mon 12:47:00 PM 32.7720 136.8199 58° Northeast  Level FlightAware Approximate
Mon 12:47:22 PM 32.3535 136.3988 62° Northeast 512 589 31,000  Level FlightAware ADS-B (LKPL)
Mon 12:48:02 PM 32.4000 136.4969 62° Northeast 512 589 31,000  Level FlightAware ADS-B (LKPL)
Mon 12:48:38 PM 32.4424 136.5868 62° Northeast 512 589 31,000  Level FlightAware ADS-B (LKPL)
Mon 12:50:30 PM 32.5733 136.8647 62° Northeast 515 593 31,000  Level FlightAware ADS-B (LKPL)
Mon 12:51:00 PM 32.6389 136.9062 54° Northeast  Level Estimated
Mon 12:51:22 PM 32.6325 136.9914 62° Northeast 516 594 31,000  Level FlightAware ADS-B (LKPL)
Mon 12:52:02 PM 32.6796 137.0923 62° Northeast 517 595 31,000  Level FlightAware ADS-B (LKPL)
Mon 12:52:35 PM 32.7178 137.1745 62° Northeast 517 595 31,000  Level FlightAware ADS-B (LKPL)
Mon 12:55:16 PM 32.9049 137.5795 62° Northeast 516 594 31,000  Level FlightAware ADS-B (LKPL)
Mon 12:56:11 PM 32.9683 137.7175 62° Northeast 518 596 31,000  Level FlightAware ADS-B (LKPL)
Mon 12:56:50 PM 33.0129 137.8153 62° Northeast 518 596 31,000  Level FlightAware ADS-B (LKPL)
Mon 12:57:38 PM 33.0669 137.9339 62° Northeast 518 596 31,000  Level FlightAware ADS-B (LKPL)
Mon 12:58:17 PM 33.1117 138.0323 62° Northeast 518 596 31,000  Level FlightAware ADS-B (LKPL)
Mon 12:59:01 PM 33.1624 138.1443 62° Northeast 520 598 31,000  Level FlightAware ADS-B (LKPL)
Mon 12:59:41 PM 33.2082 138.2456 62° Northeast 521 600 31,000  Level FlightAware ADS-B (LKPL)
Mon 01:00:11 PM 33.2418 138.3203 62° Northeast 519 597 31,000  Level FlightAware ADS-B (LKPL)
Mon 01:00:42 PM 33.2774 138.3994 62° Northeast 518 596 31,000  Level FlightAware ADS-B (LKPL)
Mon 01:01:22 PM 33.3220 138.4988 62° Northeast 518 596 31,000  Level FlightAware ADS-B (LKPL)
Mon 01:02:02 PM 33.3672 138.5998 62° Northeast 523 602 31,000  Level FlightAware ADS-B (LKPL)
Mon 01:02:42 PM 33.4132 138.7033 62° Northeast 526 605 31,000 225 Level FlightAware ADS-B (LKPL)
Mon 01:03:22 PM 33.4584 138.8050 62° Northeast 525 604 31,300 889 Climbing FlightAware ADS-B (LKPL)
Mon 01:04:03 PM 33.5044 138.9088 62° Northeast 524 603 32,200 1,275 Climbing FlightAware ADS-B (LKPL)
Mon 01:04:42 PM 33.5487 139.0090 62° Northeast 523 602 33,000 608 Climbing FlightAware ADS-B (LKPL)
Mon 01:05:22 PM 33.5943 139.1124 62° Northeast 521 600 33,000  Level FlightAware ADS-B (LKPL)
Mon 01:06:02 PM 33.6391 139.2142 62° Northeast 521 600 33,000  Level FlightAware ADS-B (LKPL)
Mon 01:06:43 PM 33.6842 139.3172 62° Northeast 519 597 33,000  Level FlightAware ADS-B (LKPL)
Mon 01:07:14 PM 33.6971 139.3467 62° Northeast 517 595 33,000  Level FlightAware ADS-B
Mon 01:07:57 PM 33.7110 139.3787 62° Northeast 514 592 33,000  Level FlightAware ADS-B
Mon 01:08:44 PM 33.7901 139.5599 63° Northeast 513 590 33,000  Level FlightAware ADS-B
Mon 01:09:15 PM 33.8339 139.6608 63° Northeast 514 592 33,000  Level FlightAware ADS-B
Mon 01:09:57 PM 33.8757 139.7575 63° Northeast 513 590 33,000  Level FlightAware ADS-B
Mon 01:10:29 PM 33.8977 139.8085 63° Northeast 514 592 33,000  Level FlightAware ADS-B
Mon 01:11:14 PM 33.9644 139.9635 63° Northeast 521 600 33,000  Level FlightAware ADS-B
Mon 01:12:15 PM 34.0321 140.1217 63° Northeast 522 601 33,000  Level FlightAware ADS-B
Mon 01:12:45 PM 34.0634 140.1951 63° Northeast 522 601 33,000  Level FlightAware ADS-B
Mon 01:13:29 PM 34.1068 140.2967 63° Northeast 522 601 33,000  Level FlightAware ADS-B
Mon 01:14:00 PM 34.1464 140.3899 63° Northeast 520 598 33,000  Level FlightAware ADS-B
Mon 01:14:30 PM 34.1768 140.4617 63° Northeast 521 600 33,000  Level FlightAware ADS-B
Mon 01:15:01 PM 34.2136 140.5489 63° Northeast 522 601 33,000  Level FlightAware ADS-B
Mon 01:15:31 PM 34.2472 140.6286 63° Northeast 522 601 33,000  Level FlightAware ADS-B
Mon 01:16:01 PM 34.2793 140.7049 63° Northeast 522 601 33,000  Level FlightAware ADS-B
Mon 01:16:31 PM 34.3118 140.7823 63° Northeast 522 601 33,000  Level FlightAware ADS-B
Mon 01:17:15 PM 34.3591 140.8955 63° Northeast 524 603 33,000  Level FlightAware ADS-B
Mon 01:17:45 PM 34.3927 140.9759 63° Northeast 526 605 33,000  Level FlightAware ADS-B
Mon 01:18:30 PM 34.4365 141.0813 63° Northeast 527 606 33,000  Level FlightAware ADS-B
Mon 01:19:01 PM 34.4762 141.1768 63° Northeast 528 608 33,000  Level FlightAware ADS-B
Mon 01:19:45 PM 34.5228 141.2893 64° Northeast 531 611 33,000  Level FlightAware ADS-B
Mon 01:20:16 PM 34.5589 141.3768 64° Northeast 534 615 33,000  Level FlightAware ADS-B
Mon 01:21:01 PM 34.6078 141.4957 64° Northeast 538 619 33,000  Level FlightAware ADS-B
Mon 01:21:31 PM 34.6409 141.5765 64° Northeast 539 620 33,000  Level FlightAware ADS-B
Mon 01:22:16 PM 34.6908 141.6987 64° Northeast 538 619 33,000  Level FlightAware ADS-B
Mon 01:22:46 PM 34.7240 141.7803 64° Northeast 537 618 33,000  Level FlightAware ADS-B
Mon 01:23:30 PM 34.7714 141.8973 64° Northeast 534 615 33,000  Level FlightAware ADS-B
Mon 01:24:15 PM 34.8200 142.0174 64° Northeast 530 610 33,000  Level FlightAware ADS-B
Mon 01:24:46 PM 34.8541 142.1017 64° Northeast 529 609 33,000  Level FlightAware ADS-B
Mon 01:25:16 PM 34.8873 142.1840 64° Northeast 527 606 33,000  Level FlightAware ADS-B
Mon 01:26:00 PM 34.9333 142.2986 64° Northeast 528 608 33,000  Level FlightAware ADS-B
Mon 01:26:31 PM 34.9673 142.3837 64° Northeast 530 610 33,000  Level FlightAware ADS-B
Mon 01:27:16 PM 35.0058 142.4801 64° Northeast 531 611 33,000  Level FlightAware ADS-B
Mon 01:27:46 PM 35.0448 142.5783 64° Northeast 531 611 33,000  Level FlightAware ADS-B
Mon 01:28:17 PM 35.0661 142.6318 64° Northeast 530 610 33,000  Level FlightAware ADS-B
Mon 01:28:47 PM 35.1119 142.7474 64° Northeast 527 606 33,000  Level FlightAware ADS-B
Mon 01:29:31 PM 35.1584 142.8654 64° Northeast 526 605 33,000  Level FlightAware ADS-B
Mon 01:30:10 PM 35.1998 142.9703 64° Northeast 525 604 33,000  Level FlightAware ADS-B
Mon 01:32:38 PM 35.3711 143.4102 65° Northeast 527 606 33,000 Level FlightAware ADS-B (LKPL)
Mon 01:35:00 PM 35.5498 143.7556 57° Northeast  Level Estimated
Mon 01:36:00 PM 35.6250 143.9020 58° Northeast  Level Estimated
Mon 01:37:00 PM 35.7001 144.0487 58° Northeast  Level Estimated
Mon 01:38:00 PM 35.7749 144.1957 58° Northeast  Level Estimated
Mon 01:39:00 PM 35.8496 144.3429 58° Northeast  Level Estimated
Mon 01:40:00 PM 35.8944 144.5076 71° East  Level FlightAware Approximate
Mon 01:41:00 PM 35.9390 144.6726 71° East  Level FlightAware Approximate
Mon 01:42:00 PM 35.9834 144.8377 72° East  Level FlightAware Approximate
Mon 01:43:00 PM 36.0276 145.0030 72° East  Level FlightAware Approximate
Mon 01:44:00 PM 36.0715 145.1685 72° East  Level FlightAware Approximate
Mon 01:45:00 PM 36.1152 145.3342 72° East  Level FlightAware Approximate
Mon 01:46:00 PM 36.1705 145.5017 54° Northeast  Level FlightAware Approximate
Mon 01:47:00 PM 36.2530 145.6432 54° Northeast  Level FlightAware Approximate
Mon 01:48:00 PM 36.3409 145.7797 51° Northeast  Level FlightAware Approximate
Mon 01:49:00 PM 36.4296 145.9155 51° Northeast  Level FlightAware Approximate
Mon 01:50:00 PM 36.5183 146.0516 51° Northeast  Level FlightAware Approximate
Mon 01:51:00 PM 36.6068 146.1880 51° Northeast  Level FlightAware Approximate
Mon 01:52:00 PM 36.6951 146.3247 51° Northeast  Level FlightAware Approximate
Mon 01:53:00 PM 36.7833 146.4617 51° Northeast  Level FlightAware Approximate
Mon 01:54:00 PM 36.8713 146.5991 51° Northeast  Level FlightAware Approximate
Mon 01:55:00 PM 36.9591 146.7368 51° Northeast  Level FlightAware Approximate
Mon 01:56:00 PM 37.0468 146.8747 51° Northeast  Level FlightAware Approximate
Mon 01:57:00 PM 37.1344 147.0130 52° Northeast  Level FlightAware Approximate
Mon 01:58:00 PM 37.2217 147.1517 52° Northeast  Level FlightAware Approximate
Mon 01:59:00 PM 37.3089 147.2906 52° Northeast  Level FlightAware Approximate
Mon 02:00:00 PM 37.3960 147.4299 52° Northeast  Level FlightAware Approximate
Mon 02:01:00 PM 37.4829 147.5694 52° Northeast  Level FlightAware Approximate
Mon 02:02:00 PM 37.5696 147.7094 52° Northeast  Level FlightAware Approximate
Mon 02:03:00 PM 37.6562 147.8496 52° Northeast  Level FlightAware Approximate
Mon 02:04:00 PM 37.7115 148.0124 69° East  Level FlightAware Approximate
Mon 02:05:00 PM 37.7624 148.1784 69° East  Level FlightAware Approximate
Mon 02:06:00 PM 37.8130 148.3447 69° East  Level FlightAware Approximate
Mon 02:07:00 PM 37.8634 148.5112 69° East  Level FlightAware Approximate
Mon 02:08:00 PM 37.9136 148.6780 69° East  Level FlightAware Approximate
Mon 02:09:00 PM 37.9635 148.8450 69° East  Level FlightAware Approximate
Mon 02:10:00 PM 38.0132 149.0121 69° East  Level FlightAware Approximate
Mon 02:11:00 PM 38.0626 149.1796 69° East  Level FlightAware Approximate
Mon 02:12:00 PM 38.0859 149.3537 88° East  Level FlightAware Approximate
Mon 02:13:00 PM 38.0902 149.5325 88° East  Level FlightAware Approximate
Mon 02:14:00 PM 38.0942 149.7114 88° East  Level FlightAware Approximate
Mon 02:15:00 PM 38.0979 149.8903 88° East  Level FlightAware Approximate
Mon 02:16:00 PM 38.1318 150.0562 54° Northeast  Level FlightAware Approximate
Mon 02:17:00 PM 38.2140 150.2016 54° Northeast  Level FlightAware Approximate
Mon 02:18:00 PM 38.2960 150.3474 54° Northeast  Level FlightAware Approximate
Mon 02:19:00 PM 38.3778 150.4936 54° Northeast  Level FlightAware Approximate
Mon 02:20:00 PM 38.4595 150.6400 55° Northeast  Level FlightAware Approximate
Mon 02:21:00 PM 38.5409 150.7868 55° Northeast  Level FlightAware Approximate
Mon 02:22:00 PM 38.6229 150.9333 54° Northeast  Level FlightAware Approximate
Mon 02:23:00 PM 38.7049 151.0799 54° Northeast  Level FlightAware Approximate
Mon 02:24:00 PM 38.7868 151.2268 54° Northeast  Level FlightAware Approximate
Mon 02:25:00 PM 38.8685 151.3741 54° Northeast  Level FlightAware Approximate
Mon 02:26:00 PM 38.9501 151.5217 55° Northeast  Level FlightAware Approximate
Mon 02:27:00 PM 39.0314 151.6696 55° Northeast  Level FlightAware Approximate
Mon 02:28:00 PM 39.1125 151.8178 55° Northeast  Level FlightAware Approximate
Mon 02:29:00 PM 39.1935 151.9664 55° Northeast  Level FlightAware Approximate
Mon 02:30:00 PM 39.2744 152.1173 55° Northeast  Level FlightAware Approximate
Mon 02:31:00 PM 39.3551 152.2685 55° Northeast  Level FlightAware Approximate
Mon 02:32:00 PM 39.4357 152.4200 55° Northeast  Level FlightAware Approximate
Mon 02:33:00 PM 39.5160 152.5719 56° Northeast  Level FlightAware Approximate
Mon 02:34:00 PM 39.5962 152.7241 56° Northeast  Level FlightAware Approximate
Mon 02:35:00 PM 39.6761 152.8767 56° Northeast  Level FlightAware Approximate
Mon 02:36:00 PM 39.7558 153.0296 56° Northeast  Level FlightAware Approximate
Mon 02:37:00 PM 39.8354 153.1829 56° Northeast  Level FlightAware Approximate
Mon 02:38:00 PM 39.9147 153.3366 56° Northeast  Level FlightAware Approximate
Mon 02:39:00 PM 39.9939 153.4906 56° Northeast  Level FlightAware Approximate
Mon 02:40:00 PM 40.0728 153.6450 56° Northeast  Level FlightAware Approximate
Mon 02:41:00 PM 40.1515 153.7997 56° Northeast  Level FlightAware Approximate
Mon 02:42:00 PM 40.2300 153.9548 56° Northeast  Level FlightAware Approximate
Mon 02:43:00 PM 40.3083 154.1102 57° Northeast  Level FlightAware Approximate
Mon 02:44:00 PM 40.3864 154.2660 57° Northeast  Level FlightAware Approximate
Mon 02:45:00 PM 40.4643 154.4222 57° Northeast  Level FlightAware Approximate
Mon 02:46:00 PM 40.5420 154.5787 57° Northeast  Level FlightAware Approximate
Mon 02:47:00 PM 40.6195 154.7356 57° Northeast  Level FlightAware Approximate
Mon 02:48:00 PM 40.6968 154.8928 57° Northeast  Level FlightAware Approximate
Mon 02:49:00 PM 40.7738 155.0504 57° Northeast  Level FlightAware Approximate
Mon 02:50:00 PM 40.8506 155.2084 57° Northeast  Level FlightAware Approximate
Mon 02:51:00 PM 40.9272 155.3668 57° Northeast  Level FlightAware Approximate
Mon 02:52:00 PM 41.0036 155.5255 57° Northeast  Level FlightAware Approximate
Mon 02:53:00 PM 41.0798 155.6846 58° Northeast  Level FlightAware Approximate
Mon 02:54:00 PM 41.1558 155.8440 58° Northeast  Level FlightAware Approximate
Mon 02:55:00 PM 41.2315 156.0038 58° Northeast  Level FlightAware Approximate
Mon 02:56:00 PM 41.3070 156.1640 58° Northeast  Level FlightAware Approximate
Mon 02:57:00 PM 41.3823 156.3246 58° Northeast  Level FlightAware Approximate
Mon 02:58:00 PM 41.4574 156.4855 58° Northeast  Level FlightAware Approximate
Mon 02:59:00 PM 41.5322 156.6468 58° Northeast  Level FlightAware Approximate
Mon 03:00:00 PM 41.6069 156.8085 58° Northeast  Level FlightAware Approximate
Mon 03:01:00 PM 41.6813 156.9706 58° Northeast  Level FlightAware Approximate
Mon 03:02:00 PM 41.7554 157.1330 58° Northeast  Level FlightAware Approximate
Mon 03:03:00 PM 41.8293 157.2958 59° Northeast  Level FlightAware Approximate
Mon 03:04:00 PM 41.9031 157.4590 59° Northeast  Level FlightAware Approximate
Mon 03:05:00 PM 41.9765 157.6225 59° Northeast  Level FlightAware Approximate
Mon 03:06:00 PM 42.0498 157.7864 59° Northeast  Level FlightAware Approximate
Mon 03:07:00 PM 42.1228 157.9507 59° Northeast  Level FlightAware Approximate
Mon 03:08:00 PM 42.1955 158.1154 59° Northeast  Level FlightAware Approximate
Mon 03:09:00 PM 42.2681 158.2805 59° Northeast  Level FlightAware Approximate
Mon 03:10:00 PM 42.3404 158.4460 59° Northeast  Level FlightAware Approximate
Mon 03:11:00 PM 42.4124 158.6118 59° Northeast  Level FlightAware Approximate
Mon 03:12:00 PM 42.4843 158.7780 60° Northeast  Level FlightAware Approximate
Mon 03:13:00 PM 42.5559 158.9446 60° Northeast  Level FlightAware Approximate
Mon 03:14:00 PM 42.6272 159.1116 60° Northeast  Level FlightAware Approximate
Mon 03:15:00 PM 42.6983 159.2789 60° Northeast  Level FlightAware Approximate
Mon 03:16:00 PM 42.7691 159.4466 60° Northeast  Level FlightAware Approximate
Mon 03:17:00 PM 42.8397 159.6148 60° Northeast  Level FlightAware Approximate
Mon 03:18:00 PM 42.9101 159.7833 60° Northeast  Level FlightAware Approximate
Mon 03:19:00 PM 42.9802 159.9521 60° Northeast  Level FlightAware Approximate
Mon 03:20:00 PM 43.0440 160.1257 64° Northeast  Level FlightAware Approximate
Mon 03:21:00 PM 43.1052 160.3014 64° Northeast  Level FlightAware Approximate
Mon 03:22:00 PM 43.1661 160.4773 65° Northeast  Level FlightAware Approximate
Mon 03:23:00 PM 43.2267 160.6537 65° Northeast  Level FlightAware Approximate
Mon 03:24:00 PM 43.2870 160.8304 65° Northeast  Level FlightAware Approximate
Mon 03:25:00 PM 43.3477 161.0070 64° Northeast  Level FlightAware Approximate
Mon 03:26:00 PM 43.4100 161.1827 64° Northeast  Level FlightAware Approximate
Mon 03:27:00 PM 43.4721 161.3588 64° Northeast  Level FlightAware Approximate
Mon 03:28:00 PM 43.5339 161.5353 64° Northeast  Level FlightAware Approximate
Mon 03:29:00 PM 43.5954 161.7121 64° Northeast  Level FlightAware Approximate
Mon 03:30:00 PM 43.6567 161.8893 64° Northeast  Level FlightAware Approximate
Mon 03:31:00 PM 43.7169 162.0673 65° Northeast  Level FlightAware Approximate
Mon 03:32:00 PM 43.7763 162.2460 65° Northeast  Level FlightAware Approximate
Mon 03:33:00 PM 43.8355 162.4251 65° Northeast  Level FlightAware Approximate
Mon 03:34:00 PM 43.8943 162.6045 65° Northeast  Level FlightAware Approximate
Mon 03:35:00 PM 43.9529 162.7843 66° East  Level FlightAware Approximate
Mon 03:36:00 PM 44.0112 162.9644 66° East  Level FlightAware Approximate
Mon 03:37:00 PM 44.0691 163.1449 66° East  Level FlightAware Approximate
Mon 03:38:00 PM 44.1269 163.3258 66° East  Level FlightAware Approximate
Mon 03:39:00 PM 44.1843 163.5070 66° East  Level FlightAware Approximate
Mon 03:40:00 PM 44.2414 163.6886 66° East  Level FlightAware Approximate
Mon 03:41:00 PM 44.2983 163.8705 66° East  Level FlightAware Approximate
Mon 03:42:00 PM 44.3549 164.0527 67° East  Level FlightAware Approximate
Mon 03:43:00 PM 44.4113 164.2352 67° East  Level FlightAware Approximate
Mon 03:43:12 PM 45.0667 166.4333 68° East 553 636 34,000  Level Oakland Oceanic (ODAPS)
Mon 03:57:03 PM 45.8167 169.2667 70° East 554 638 34,000  Level Oakland Oceanic (ODAPS)
Mon 04:00:53 PM 46.0000 170.0000 70° East 533 613 34,000  Level Oakland Oceanic (ODAPS)
Mon 04:10:56 PM 46.5167 172.1167 72° East 523 602 34,000  Level Oakland Oceanic (ODAPS)
Mon 04:24:48 PM 47.1167 174.9500 74° East 514 592 34,000  Level Oakland Oceanic (ODAPS)
Mon 04:38:40 PM 47.6000 177.5833 75° East 473 544 34,000 37 Level Oakland Oceanic (ODAPS)
Mon 04:51:39 PM 48.0000 180.0000 78° East 483 556 35,000 72 Climbing Oakland Oceanic (ODAPS)
Mon 04:52:33 PM 48.0167 -179.8333 78° East 484 557 35,000  Level Oakland Oceanic (ODAPS)
Mon 05:06:25 PM 48.3667 -177.2000 80° East 488 562 35,000  Level Oakland Oceanic (ODAPS)
Mon 05:20:18 PM 48.6667 -174.4167 82° East 496 571 35,000  Level Oakland Oceanic (ODAPS)
Mon 05:34:09 PM 48.9000 -171.5667 84° East 500 575 35,000  Level Oakland Oceanic (ODAPS)
Mon 05:41:38 PM 49.0000 -170.0000 86° East 504 580 35,000  Level Oakland Oceanic (ODAPS)
Mon 05:48:02 PM 49.0500 -168.6667 87° East 498 573 35,000  Level Oakland Oceanic (ODAPS)
Mon 06:01:54 PM 49.1000 -165.8000 89° East 493 567 35,000  Level Oakland Oceanic (ODAPS)
Mon 06:15:46 PM 49.0833 -162.9333 91° East 494 568 35,000 36 Level Oakland Oceanic (ODAPS)
Mon 06:29:39 PM 49.0000 -160.0500 90° East 483 556 36,000 71 Climbing Oakland Oceanic (ODAPS)
Mon 06:29:54 PM 49.0000 -160.0000 103° East 508 585 36,000  Level Oakland Oceanic (ODAPS)
Mon 06:43:31 PM 48.5500 -157.2000 105° East 515 593 36,000  Level Oakland Oceanic (ODAPS)
Mon 06:57:23 PM 48.0000 -154.3667 107° East 515 593 36,000  Level Oakland Oceanic (ODAPS)
Mon 07:11:16 PM 47.3833 -151.6000 109° East 511 588 36,000  Level Oakland Oceanic (ODAPS)
Mon 07:19:39 PM 47.0000 -150.0000 102° East 512 589 36,000  Level Oakland Oceanic (ODAPS)
Mon 07:25:05 PM 46.8167 -148.8500 103° East 517 595 36,000  Level Oakland Oceanic (ODAPS)
Mon 07:38:59 PM 46.3333 -146.0333 105° East 524 603 36,000  Level Oakland Oceanic (ODAPS)
Mon 07:52:52 PM 45.7667 -143.2333 107° East 527 606 36,000 36 Level Oakland Oceanic (ODAPS)
Mon 08:06:44 PM 45.1333 -140.5500 109° East 507 583 37,000 59 Climbing Oakland Oceanic (ODAPS)
Mon 08:09:41 PM 45.0000 -140.0000 109° East 500 575 37,000  Level Oakland Oceanic (ODAPS)
Mon 08:20:36 PM 44.5000 -138.0000 110° East 495 570 37,000  Level Oakland Oceanic (ODAPS)
Mon 08:34:28 PM 43.8167 -135.5500 112° Southeast 490 564 37,000  Level Oakland Oceanic (ODAPS)
Mon 08:48:21 PM 43.0833 -133.2000 114° Southeast 486 559 37,000  Level Oakland Oceanic (ODAPS)
Mon 09:02:13 PM 42.3167 -130.9167 115° Southeast 479 551 37,000  Level Oakland Oceanic (ODAPS)
Mon 09:07:52 PM 42.0000 -130.0000 120° Southeast 476 548 37,000  Level Oakland Oceanic (ODAPS)
Mon 09:15:56 PM 41.4500 -128.7667 121° Southeast 470 541 37,000  Level Oakland Oceanic (ODAPS)
Mon 09:27:12 PM 40.6994 -127.1519 118° Southeast 462 532 37,000  Level Oakland Center
Mon 09:28:00 PM 40.6333 -127.0000 118° Southeast 470 541 37,000  Level FlightAware Transoceanic
Mon 09:28:13 PM 40.6322 -127.0100 122° Southeast 461 531 37,000  Level Oakland Center
Mon 09:29:00 PM 40.5723 -126.8474 118° Southeast 470 541 37,000 -97 Level FlightAware Transoceanic
Mon 09:29:15 PM 40.5414 -126.8531 127° Southeast 454 522 36,900  Descending Oakland Center
Mon 09:30:00 PM 40.5111 -126.6950 118° Southeast 470 541 37,000  Climbing FlightAware Transoceanic
Mon 09:30:16 PM 40.4575 -126.7278 131° Southeast 451 519 36,900  Descending Oakland Center
Mon 09:31:00 PM 40.4497 -126.5429 118° Southeast 470 541 37,000 98 Climbing FlightAware Transoceanic
Mon 09:31:17 PM 40.3747 -126.6039 131° Southeast 452 520 37,000  Level Oakland Center
Mon 09:32:00 PM 40.3881 -126.3911 118° Southeast 470 541 37,000  Level FlightAware Transoceanic
Mon 09:32:19 PM 40.2961 -126.4769 129° Southeast 452 520 37,000  Level Oakland Center
Mon 09:33:20 PM 40.2128 -126.3511 131° Southeast 453 521 37,000 -49 Level Oakland Center
Mon 09:34:22 PM 40.1325 -126.2264 130° Southeast 453 521 36,900 -49 Descending Oakland Center
Mon 09:35:23 PM 40.0514 -126.1003 130° Southeast 453 521 36,900 49 Level Oakland Center
Mon 09:36:24 PM 39.9694 -125.9758 131° Southeast 454 522 37,000  Climbing Oakland Center
Mon 09:37:26 PM 39.8714 -125.8269 131° Southeast 454 522 36,900  Descending Oakland Center
Mon 09:38:27 PM 39.7897 -125.7019 130° Southeast 454 522 37,000 49 Climbing Oakland Center
Mon 09:39:28 PM 39.7083 -125.5792 131° Southeast 454 522 37,000  Level Oakland Center
Mon 09:40:30 PM 39.6267 -125.4569 131° Southeast 453 521 37,000  Level Oakland Center
Mon 09:41:31 PM 39.5469 -125.3356 130° Southeast 448 516 37,000  Level Oakland Center
Mon 09:42:32 PM 39.4658 -125.2144 131° Southeast 447 514 37,000  Level Oakland Center
Mon 09:43:34 PM 39.3761 -125.0803 131° Southeast 448 516 37,000 -49 Level Oakland Center
Mon 09:44:35 PM 39.2931 -124.9606 132° Southeast 448 516 36,900 -49 Descending Oakland Center
Mon 09:45:36 PM 39.2122 -124.8386 131° Southeast 448 516 36,900  Level Oakland Center
Mon 09:46:37 PM 39.1214 -124.7058 131° Southeast 450 518 36,900 49 Level Oakland Center
Mon 09:47:39 PM 39.0400 -124.5872 131° Southeast 448 516 37,000  Climbing Oakland Center
Mon 09:48:40 PM 38.9653 -124.4767 131° Southeast 448 516 36,900  Descending Oakland Center
Mon 09:54:40 PM 38.4497 -123.7357 132° Southeast 451 519 37,000 14 Climbing FlightAware ADS-B
Mon 09:55:53 PM 38.3526 -123.5979 132° Southeast 453 521 37,000  Level FlightAware ADS-B
Mon 09:56:49 PM 38.2801 -123.4955 132° Southeast 453 521 37,000  Level FlightAware ADS-B
Mon 09:57:31 PM 38.2271 -123.4207 132° Southeast 454 522 37,000  Level FlightAware ADS-B
Mon 09:58:14 PM 38.2354 -123.4324 132° Southeast 454 522 37,000  Level FlightAware ADS-B
Mon 09:59:58 PM 38.0040 -123.1082 132° Southeast 453 521 37,000  Level FlightAware ADS-B
Mon 10:00:32 PM 37.9580 -123.0440 132° Southeast 454 522 37,000  Level FlightAware ADS-B
Mon 10:01:14 PM 37.9012 -122.9651 132° Southeast 455 524 37,000  Level FlightAware ADS-B
Mon 10:01:52 PM 37.8487 -122.8923 132° Southeast 455 524 37,000  Level FlightAware ADS-B
Mon 10:02:30 PM 37.7910 -122.8126 132° Southeast 456 525 37,000  Level FlightAware ADS-B
Mon 10:03:00 PM 37.7462 -122.7506 132° Southeast 457 526 37,000  Level FlightAware ADS-B
Mon 10:03:38 PM 37.6921 -122.6761 133° Southeast 457 526 37,000  Level FlightAware ADS-B
Mon 10:04:14 PM 37.6410 -122.6059 132° Southeast 457 526 37,000  Level FlightAware ADS-B
Mon 10:04:55 PM 37.5815 -122.5240 133° Southeast 457 526 37,000  Level FlightAware ADS-B
Mon 10:05:35 PM 37.5241 -122.4459 133° Southeast 457 526 37,000  Level FlightAware ADS-B
Mon 10:06:15 PM 37.4677 -122.3690 133° Southeast 456 525 37,000  Level FlightAware ADS-B
Mon 10:06:46 PM 37.4232 -122.3080 133° Southeast 456 525 37,000  Level FlightAware ADS-B
Mon 10:06:56 PM 37.4091 -122.2892 133° Southeast 456 525 37,000  Level FlightAware ADS-B
Mon 10:07:22 PM 37.3717 -122.2380 133° Southeast 454 522 37,000  Level FlightAware ADS-B
Mon 10:07:35 PM 37.3553 -122.2162 133° Southeast 454 522 37,000  Level FlightAware ADS-B
Mon 10:08:12 PM 37.3003 -122.1420 133° Southeast 453 521 37,000  Level FlightAware ADS-B
Mon 10:08:14 PM 37.2995 -122.1406 133° Southeast 452 520 37,000  Level FlightAware ADS-B
Mon 10:08:45 PM 37.2534 -122.0780 133° Southeast 452 520 37,000  Level FlightAware ADS-B
Mon 10:08:56 PM 37.2418 -122.0626 133° Southeast 452 520 37,000  Level FlightAware ADS-B
Mon 10:09:15 PM 37.2104 -122.0200 133° Southeast 452 520 37,000  Level FlightAware ADS-B
Mon 10:09:35 PM 37.1824 -121.9825 133° Southeast 452 520 37,000  Level FlightAware ADS-B
Mon 10:09:46 PM 37.1663 -121.9610 133° Southeast 451 519 37,000  Level FlightAware ADS-B
Mon 10:10:13 PM 37.1277 -121.9090 133° Southeast 452 520 37,000  Level FlightAware ADS-B
Mon 10:10:19 PM 37.1192 -121.8970 133° Southeast 451 519 37,000  Level FlightAware ADS-B
Mon 10:10:56 PM 37.0666 -121.8270 133° Southeast 453 521 37,000  Level FlightAware ADS-B
Mon 10:10:57 PM 37.0653 -121.8252 133° Southeast 453 521 37,000  Level FlightAware ADS-B
Mon 10:11:28 PM 37.0213 -121.7660 133° Southeast 453 521 37,000  Level FlightAware ADS-B
Mon 10:11:47 PM 36.9947 -121.7308 133° Southeast 454 522 37,000  Level FlightAware ADS-B
Mon 10:12:02 PM 36.9729 -121.7020 133° Southeast 454 522 37,000  Level FlightAware ADS-B
Mon 10:12:34 PM 36.9301 -121.6447 133° Southeast 454 522 37,000  Level FlightAware ADS-B
Mon 10:13:13 PM 36.8707 -121.5660 133° Southeast 453 521 37,000  Level FlightAware ADS-B
Mon 10:13:19 PM 36.8737 -121.5695 133° Southeast 454 522 37,000  Level FlightAware ADS-B
Mon 10:13:53 PM 36.8121 -121.4910 135° Southeast 453 521 37,000  Level FlightAware ADS-B
Mon 10:14:31 PM 36.7556 -121.4230 136° Southeast 454 522 37,000  Level FlightAware ADS-B
Mon 10:14:40 PM 36.7420 -121.4065 136° Southeast 454 522 37,000  Level FlightAware ADS-B
Mon 10:15:13 PM 36.6919 -121.3460 136° Southeast 455 524 37,000  Level FlightAware ADS-B
Mon 10:15:20 PM 36.6857 -121.3383 136° Southeast 455 524 37,000  Level FlightAware ADS-B
Mon 10:15:54 PM 36.6311 -121.2717 135° Southeast 455 524 37,000  Level FlightAware ADS-B
Mon 10:16:04 PM 36.6147 -121.2520 135° Southeast 455 524 37,000  Level FlightAware ADS-B
Mon 10:16:36 PM 36.5672 -121.1939 136° Southeast 456 525 37,000  Level FlightAware ADS-B
Mon 10:17:15 PM 36.5082 -121.1220 136° Southeast 457 526 37,000  Level FlightAware ADS-B
Mon 10:18:18 PM 36.4128 -121.0068 136° Southeast 455 524 37,000  Level FlightAware ADS-B
Mon 10:19:17 PM 36.3400 -120.9208 136° Southeast 456 525 37,000  Level Oakland Center
Mon 10:24:38 PM 35.8399 -120.3234 136° Southeast 460 529 37,000 -41 Level FlightAware ADS-B (KCRQ)
Mon 10:29:03 PM 35.4308 -119.8441 136° Southeast 460 529 36,600 -350 Descending FlightAware ADS-B (KCRQ)
Mon 10:29:47 PM 35.3599 -119.7616 136° Southeast 470 541 35,200 -1,467 Descending FlightAware ADS-B (KCRQ)
Mon 10:30:33 PM 35.2882 -119.6786 137° Southeast 467 537 34,400 -1,400 Descending FlightAware ADS-B (KCRQ)
Mon 10:31:17 PM 35.2163 -119.6075 144° Southeast 465 535 33,100 -1,946 Descending FlightAware ADS-B (KCRQ)
Mon 10:31:47 PM 35.1613 -119.5600 145° Southeast 469 540 32,000 -1,800 Descending FlightAware ADS-B (KCRQ)
Mon 10:32:27 PM 35.0943 -119.5031 145° Southeast 453 521 31,000 -800 Descending FlightAware ADS-B (KCRQ)
Mon 10:33:02 PM 35.0374 -119.4549 145° Southeast 442 509 31,000 -525 Level FlightAware ADS-B (KCRQ)
Mon 10:33:47 PM 34.9607 -119.3896 145° Southeast 442 509 30,300 -2,000 Descending FlightAware ADS-B (KCRQ)
Mon 10:34:32 PM 34.8807 -119.3216 145° Southeast 455 524 28,000 -2,967 Descending FlightAware ADS-B (KCRQ)
Mon 10:35:18 PM 34.8031 -119.2560 145° Southeast 457 526 25,800 -2,533 Descending FlightAware ADS-B (KCRQ)
Mon 10:36:02 PM 34.7235 -119.1888 145° Southeast 446 513 24,200 -2,292 Descending FlightAware ADS-B (KCRQ)
Mon 10:36:47 PM 34.6503 -119.1271 145° Southeast 442 509 22,400 -2,374 Descending FlightAware ADS-B (KCRQ)
Mon 10:37:33 PM 34.5883 -119.0749 145° Southeast 441 507 20,600 -2,200 Descending FlightAware ADS-B (KCRQ)
Mon 10:38:17 PM 34.5017 -119.0025 145° Southeast 432 497 19,100 -1,920 Descending FlightAware ADS-B (KCRQ)
Mon 10:38:48 PM 34.4640 -118.9709 145° Southeast 424 488 18,200 -1,865 Descending FlightAware ADS-B (KCRQ)
Mon 10:39:31 PM 34.3935 -118.9118 148° Southeast 398 458 16,800 -2,055 Descending FlightAware ADS-B (KCRQ)
Mon 10:40:01 PM 34.3353 -118.8742 159° South 372 428 15,700 -2,600 Descending FlightAware ADS-B (KCRQ)
Mon 10:40:31 PM 34.2952 -118.8579 163° South 359 413 14,200 -2,176 Descending FlightAware ADS-B (KCRQ)
Mon 10:41:32 PM 34.1889 -118.8195 163° South 353 406 12,400 -1,626 Descending FlightAware ADS-B (KCRQ)
Mon 10:42:18 PM 34.1240 -118.7959 163° South 342 394 11,300 -1,011 Descending FlightAware ADS-B (KCRQ)
Mon 10:43:01 PM 34.0607 -118.7680 142° Southeast 312 359 10,900 -761 Descending FlightAware ADS-B (KCRQ)
Mon 10:43:29 PM 34.0357 -118.7255 163° South 353 406 10,400 -938 Descending FlightAware ADS-B
Mon 10:43:33 PM 34.0361 -118.7271 106° East 301 346 10,400 -625 Level FlightAware ADS-B (KCRQ)
Mon 10:44:17 PM 34.0286 -118.6586 96° East 280 322 9,900 -1,107 Descending FlightAware ADS-B (KCRQ)
Mon 10:45:16 PM 34.0207 -118.5650 96° East 259 298 8,500 -1,520 Descending FlightAware ADS-B (KCRQ)
Mon 10:45:32 PM 34.0186 -118.5428 96° East 258 297 8,000 -1,375 Descending FlightAware ADS-B (KCRQ)
Mon 10:46:04 PM 34.0148 -118.5021 97° East 257 296 7,400 -1,082 Descending FlightAware ADS-B (KCRQ)
Mon 10:46:33 PM 34.0115 -118.4536 90° East 252 290 6,900 -682 Descending FlightAware ADS-B (KCRQ)
Mon 10:46:48 PM 34.0119 -118.4492 80° East 253 291 6,900  Level FlightAware ADS-B (KCRQ)
Mon 10:46:49 PM 34.0141 -118.4321 80° East 252 290 6,900  Level FlightAware ADS-B
Mon 10:47:04 PM 34.0171 -118.4121 80° East 251 289 6,900  Level FlightAware ADS-B (KCRQ)
Mon 10:47:09 PM 34.0180 -118.4058 79° East 250 288 6,900 -600 Level FlightAware ADS-B
Mon 10:47:24 PM 34.0216 -118.3820 79° East 249 287 6,700 -1,000 Descending FlightAware ADS-B
Mon 10:47:33 PM 34.0230 -118.3724 80° East 250 288 6,500 -1,200 Descending FlightAware ADS-B (KCRQ)
Mon 10:47:44 PM 34.0250 -118.3589 79° East 249 287 6,300 -1,385 Descending FlightAware ADS-B
Mon 10:47:59 PM 34.0287 -118.3343 79° East 249 287 5,900 -1,333 Descending FlightAware ADS-B
Mon 10:48:02 PM 34.0281 -118.3383 80° East 249 287 5,900 -1,200 Level FlightAware ADS-B (KCRQ)
Mon 10:48:14 PM 34.0313 -118.3174 79° East 249 287 5,600 -1,556 Descending FlightAware ADS-B
Mon 10:48:29 PM 34.0344 -118.2981 79° East 250 288 5,200 -1,714 Descending FlightAware ADS-B (KCRQ)
Mon 10:48:49 PM 34.0390 -118.2696 80° East 249 287 4,600 -1,256 Descending FlightAware ADS-B
Mon 10:49:12 PM 34.0438 -118.2377 80° East 251 289 4,300 -800 Descending FlightAware ADS-B (KCRQ)
Mon 10:49:34 PM 34.0480 -118.2090 80° East 251 289 4,000 -1,333 Descending FlightAware ADS-B (KCRQ)
Mon 10:49:57 PM 34.0532 -118.1730 80° East 251 289 3,300 -1,500 Descending FlightAware ADS-B
Mon 10:50:18 PM 34.0563 -118.1507 81° East 255 293 2,900 -1,171 Descending FlightAware ADS-B (KCRQ)
Mon 10:50:38 PM 34.0595 -118.1170 94° East 253 291 2,500 -585 Descending FlightAware ADS-B
Mon 10:50:59 PM 34.0482 -118.0910 135° Southeast 239 275 2,500 146 Level FlightAware ADS-B
Mon 10:51:19 PM 34.0299 -118.0820 168° South 226 260 2,600  Climbing FlightAware ADS-B
Mon 10:51:38 PM 34.0093 -118.0803 187° South 224 258 2,500  Descending FlightAware ADS-B
Mon 10:51:59 PM 33.9920 -118.0931 225° Southwest 216 249 2,600  Climbing FlightAware ADS-B
Mon 10:52:06 PM 33.9868 -118.1002 232° Southwest 213 245 2,500 -316 Descending FlightAware ADS-B
Mon 10:52:18 PM 33.9827 -118.1099 250° West 203 234 2,500  Level FlightAware ADS-B (KCRQ)
Mon 10:52:39 PM 33.9790 -118.1347 262° West 196 226 2,500  Level FlightAware ADS-B
Mon 10:53:00 PM 33.9766 -118.1570 263° West 195 224 2,500  Level FlightAware ADS-B
Mon 10:53:11 PM 33.9756 -118.1681 264° West 196 226 2,500  Level FlightAware ADS-B
Mon 10:53:20 PM 33.9746 -118.1787 263° West 191 220 2,500  Level FlightAware ADS-B
Mon 10:53:39 PM 33.9727 -118.1990 264° West 187 215 2,500  Level FlightAware ADS-B
Mon 10:54:00 PM 33.9706 -118.2198 263° West 186 214 2,500  Level FlightAware ADS-B
Mon 10:54:04 PM 33.9701 -118.2243 264° West 186 214 2,500  Level FlightAware ADS-B
Mon 10:54:16 PM 33.9689 -118.2365 263° West 185 213 2,500  Level FlightAware ADS-B
Mon 10:54:24 PM 33.9680 -118.2449 263° West 186 214 2,500 -742 Level FlightAware ADS-B
Mon 10:57:30 PM 33.9528 -118.3952 263° West 146 168 100 -774 Descending FlightAware ADS-B (KCRQ)

Login

Don't have an account? Register now (free) for customized features, flight alerts, and more!